< < Back
Terminal Aerodrome Forecast


Current Version              Previous Versions:   1  2  3  4  5  6  7  8  9  

Terminal Aerodrome Forecast

692
FTUS42 KJAX 271800 AAA
TAFGNV
TAF AMD
KGNV 271827Z 2718/2818 26011KT P6SM VCSH SCT040 SCT250
      TEMPO 2718/2721 VRB10G20KT SHRA BKN030
     FM280000 25008KT P6SM SCT040 SCT250
     FM281400 24011G16KT P6SM FEW020 SCT250=

Latest METAR

769
SAUS70 KWBC 281200 RRF
MTRGNV
METAR KGNV 281153Z 27005KT 9SM CLR 26/24 A3003 RMK AO2 SLP166 T02610244
10261 20250 51008


USA.gov is the U.S. government's official web portal to all federal, state and local government web resources and services.